sensor_id;sensor_type;location;lat;lon;timestamp;noise_LAeq;noise_LA_min;noise_LA_max;noise_LA01;noise_LA95
47109;Laerm;32856;51.422;6.794;2022-09-09T00:00:12;54.45;45.33;73.16;;
47109;Laerm;32856;51.422;6.794;2022-09-09T00:02:39;52.22;46.73;61.88;;
47109;Laerm;32856;51.422;6.794;2022-09-09T00:05:12;50.11;46.02;58.99;;
47109;Laerm;32856;51.422;6.794;2022-09-09T00:07:43;56.59;45.99;76.51;;
47109;Laerm;32856;51.422;6.794;2022-09-09T00:10:17;50.86;46.38;56.70;;
47109;Laerm;32856;51.422;6.794;2022-09-09T00:12:50;51.70;46.45;56.29;;
47109;Laerm;32856;51.422;6.794;2022-09-09T00:15:22;58.90;46.33;74.80;;
47109;Laerm;32856;51.422;6.794;2022-09-09T00:17:53;49.18;43.86;56.45;;
47109;Laerm;32856;51.422;6.794;2022-09-09T00:20:25;54.35;45.14;73.91;;
47109;Laerm;32856;51.422;6.794;2022-09-09T00:22:56;53.50;44.23;71.05;;
47109;Laerm;32856;51.422;6.794;2022-09-09T00:25:29;50.05;43.44;60.30;;
47109;Laerm;32856;51.422;6.794;2022-09-09T00:28:00;51.82;48.02;56.78;;
47109;Laerm;32856;51.422;6.794;2022-09-09T00:30:30;52.33;47.34;56.75;;
47109;Laerm;32856;51.422;6.794;2022-09-09T00:33:00;49.17;44.58;59.79;;
47109;Laerm;32856;51.422;6.794;2022-09-09T00:35:29;56.15;47.44;72.03;;
47109;Laerm;32856;51.422;6.794;2022-09-09T00:37:59;54.11;46.95;70.11;;
47109;Laerm;32856;51.422;6.794;2022-09-09T00:40:31;50.86;45.54;56.09;;
47109;Laerm;32856;51.422;6.794;2022-09-09T00:43:12;50.38;46.38;55.16;;
47109;Laerm;32856;51.422;6.794;2022-09-09T00:45:52;58.49;47.81;77.15;;
47109;Laerm;32856;51.422;6.794;2022-09-09T00:48:24;51.69;47.91;58.56;;
47109;Laerm;32856;51.422;6.794;2022-09-09T00:50:59;50.47;46.25;57.94;;
47109;Laerm;32856;51.422;6.794;2022-09-09T00:53:34;49.77;45.30;55.60;;
47109;Laerm;32856;51.422;6.794;2022-09-09T00:56:12;51.91;46.38;58.10;;
47109;Laerm;32856;51.422;6.794;2022-09-09T00:58:42;51.44;47.59;54.69;;
47109;Laerm;32856;51.422;6.794;2022-09-09T01:01:10;51.35;47.76;55.81;;
47109;Laerm;32856;51.422;6.794;2022-09-09T01:03:40;51.97;47.96;58.70;;
47109;Laerm;32856;51.422;6.794;2022-09-09T01:06:12;58.99;46.59;74.22;;
47109;Laerm;32856;51.422;6.794;2022-09-09T01:11:25;50.57;46.71;54.28;;
47109;Laerm;32856;51.422;6.794;2022-09-09T01:13:54;55.27;47.95;68.95;;
47109;Laerm;32856;51.422;6.794;2022-09-09T01:16:25;56.87;48.85;74.62;;
47109;Laerm;32856;51.422;6.794;2022-09-09T01:18:54;51.69;46.13;61.79;;
47109;Laerm;32856;51.422;6.794;2022-09-09T01:21:22;50.27;45.86;54.67;;
47109;Laerm;32856;51.422;6.794;2022-09-09T01:26:37;51.59;46.69;59.31;;
47109;Laerm;32856;51.422;6.794;2022-09-09T01:29:06;51.79;48.15;55.75;;
47109;Laerm;32856;51.422;6.794;2022-09-09T01:31:36;51.92;48.29;57.06;;
47109;Laerm;32856;51.422;6.794;2022-09-09T01:34:07;54.32;47.59;60.55;;
47109;Laerm;32856;51.422;6.794;2022-09-09T01:36:37;50.93;46.95;55.32;;
47109;Laerm;32856;51.422;6.794;2022-09-09T01:39:06;52.62;48.49;56.52;;
47109;Laerm;32856;51.422;6.794;2022-09-09T01:41:33;55.73;49.19;63.09;;
47109;Laerm;32856;51.422;6.794;2022-09-09T01:44:02;51.46;46.84;57.06;;
47109;Laerm;32856;51.422;6.794;2022-09-09T01:46:30;51.41;47.63;56.68;;
47109;Laerm;32856;51.422;6.794;2022-09-09T01:48:58;51.23;46.82;55.02;;
47109;Laerm;32856;51.422;6.794;2022-09-09T01:51:26;51.19;47.68;54.86;;
47109;Laerm;32856;51.422;6.794;2022-09-09T01:53:53;50.68;46.57;56.05;;
47109;Laerm;32856;51.422;6.794;2022-09-09T01:56:25;51.10;46.20;55.39;;
47109;Laerm;32856;51.422;6.794;2022-09-09T01:58:59;50.43;45.51;55.75;;
47109;Laerm;32856;51.422;6.794;2022-09-09T02:01:32;51.06;47.24;54.32;;
47109;Laerm;32856;51.422;6.794;2022-09-09T02:04:03;56.08;47.12;73.22;;
47109;Laerm;32856;51.422;6.794;2022-09-09T02:06:34;51.67;47.70;55.55;;
47109;Laerm;32856;51.422;6.794;2022-09-09T02:09:04;56.01;48.66;73.83;;
47109;Laerm;32856;51.422;6.794;2022-09-09T02:11:32;59.34;47.70;78.72;;
47109;Laerm;32856;51.422;6.794;2022-09-09T02:14:00;62.66;49.28;84.80;;
47109;Laerm;32856;51.422;6.794;2022-09-09T02:16:30;52.00;47.18;60.44;;
47109;Laerm;32856;51.422;6.794;2022-09-09T02:19:02;57.00;47.79;74.03;;
47109;Laerm;32856;51.422;6.794;2022-09-09T02:21:33;52.90;48.92;55.96;;
47109;Laerm;32856;51.422;6.794;2022-09-09T02:24:03;52.76;49.52;57.38;;
47109;Laerm;32856;51.422;6.794;2022-09-09T02:26:34;58.39;47.40;77.36;;
47109;Laerm;32856;51.422;6.794;2022-09-09T02:29:03;54.62;48.32;67.98;;
47109;Laerm;32856;51.422;6.794;2022-09-09T02:31:32;57.67;47.93;76.94;;
47109;Laerm;32856;51.422;6.794;2022-09-09T02:34:03;62.37;46.52;81.22;;
47109;Laerm;32856;51.422;6.794;2022-09-09T02:36:32;53.04;47.76;61.42;;
47109;Laerm;32856;51.422;6.794;2022-09-09T02:39:01;52.88;48.02;63.74;;
47109;Laerm;32856;51.422;6.794;2022-09-09T02:41:30;58.02;47.22;74.86;;
47109;Laerm;32856;51.422;6.794;2022-09-09T02:43:58;63.02;50.37;78.67;;
47109;Laerm;32856;51.422;6.794;2022-09-09T02:46:32;60.07;49.16;76.05;;
47109;Laerm;32856;51.422;6.794;2022-09-09T02:49:08;57.67;50.42;75.44;;
47109;Laerm;32856;51.422;6.794;2022-09-09T02:51:37;57.90;49.78;75.77;;
47109;Laerm;32856;51.422;6.794;2022-09-09T02:54:10;56.56;50.35;72.82;;
47109;Laerm;32856;51.422;6.794;2022-09-09T02:56:40;53.02;49.42;57.24;;
47109;Laerm;32856;51.422;6.794;2022-09-09T02:59:09;56.97;49.69;74.55;;
47109;Laerm;32856;51.422;6.794;2022-09-09T03:01:37;59.07;50.28;77.09;;
47109;Laerm;32856;51.422;6.794;2022-09-09T03:04:07;58.60;51.03;77.24;;
47109;Laerm;32856;51.422;6.794;2022-09-09T03:06:35;54.49;50.97;64.48;;
47109;Laerm;32856;51.422;6.794;2022-09-09T03:09:02;55.03;50.42;60.59;;
47109;Laerm;32856;51.422;6.794;2022-09-09T03:11:30;58.00;51.63;75.09;;
47109;Laerm;32856;51.422;6.794;2022-09-09T03:13:57;62.94;52.22;77.86;;
47109;Laerm;32856;51.422;6.794;2022-09-09T03:16:25;60.67;51.37;76.62;;
47109;Laerm;32856;51.422;6.794;2022-09-09T03:18:52;61.90;51.84;77.38;;
47109;Laerm;32856;51.422;6.794;2022-09-09T03:21:21;59.51;50.75;75.31;;
47109;Laerm;32856;51.422;6.794;2022-09-09T03:23:49;57.02;50.71;75.29;;
47109;Laerm;32856;51.422;6.794;2022-09-09T03:26:16;61.16;50.52;77.56;;
47109;Laerm;32856;51.422;6.794;2022-09-09T03:28:44;54.45;49.97;62.89;;
47109;Laerm;32856;51.422;6.794;2022-09-09T03:31:11;58.06;50.72;74.35;;
47109;Laerm;32856;51.422;6.794;2022-09-09T03:33:39;58.15;51.67;75.24;;
47109;Laerm;32856;51.422;6.794;2022-09-09T03:36:07;59.95;52.07;74.52;;
47109;Laerm;32856;51.422;6.794;2022-09-09T03:38:37;61.62;53.17;77.41;;
47109;Laerm;32856;51.422;6.794;2022-09-09T03:41:04;55.26;52.44;58.58;;
47109;Laerm;32856;51.422;6.794;2022-09-09T03:43:34;66.86;53.52;90.21;;
47109;Laerm;32856;51.422;6.794;2022-09-09T03:46:03;63.02;52.60;77.60;;
47109;Laerm;32856;51.422;6.794;2022-09-09T03:48:31;61.17;52.19;79.19;;
47109;Laerm;32856;51.422;6.794;2022-09-09T03:50:58;58.82;52.15;73.60;;
47109;Laerm;32856;51.422;6.794;2022-09-09T03:53:27;62.06;51.94;80.44;;
47109;Laerm;32856;51.422;6.794;2022-09-09T03:55:56;60.96;51.53;76.43;;
47109;Laerm;32856;51.422;6.794;2022-09-09T03:58:26;60.89;51.69;77.07;;
47109;Laerm;32856;51.422;6.794;2022-09-09T04:00:54;60.46;52.57;75.84;;
47109;Laerm;32856;51.422;6.794;2022-09-09T04:03:22;61.15;51.89;75.51;;
47109;Laerm;32856;51.422;6.794;2022-09-09T04:05:53;60.09;52.79;74.54;;
47109;Laerm;32856;51.422;6.794;2022-09-09T04:08:21;59.09;52.28;74.17;;
47109;Laerm;32856;51.422;6.794;2022-09-09T04:10:51;57.53;52.55;71.73;;
47109;Laerm;32856;51.422;6.794;2022-09-09T04:13:20;64.34;54.22;80.23;;
47109;Laerm;32856;51.422;6.794;2022-09-09T04:15:50;62.87;53.57;75.59;;
47109;Laerm;32856;51.422;6.794;2022-09-09T04:18:17;62.78;53.98;77.31;;
47109;Laerm;32856;51.422;6.794;2022-09-09T04:20:45;63.02;53.21;78.58;;
47109;Laerm;32856;51.422;6.794;2022-09-09T04:23:13;63.30;52.94;76.78;;
47109;Laerm;32856;51.422;6.794;2022-09-09T04:25:43;61.17;52.52;75.61;;
47109;Laerm;32856;51.422;6.794;2022-09-09T04:28:11;63.58;52.60;78.27;;
47109;Laerm;32856;51.422;6.794;2022-09-09T04:30:40;62.67;53.94;75.33;;
47109;Laerm;32856;51.422;6.794;2022-09-09T04:33:07;62.28;53.60;75.28;;
47109;Laerm;32856;51.422;6.794;2022-09-09T04:35:35;63.68;53.70;75.67;;
47109;Laerm;32856;51.422;6.794;2022-09-09T04:38:04;63.51;53.95;78.19;;
47109;Laerm;32856;51.422;6.794;2022-09-09T04:40:32;61.51;54.20;75.60;;
47109;Laerm;32856;51.422;6.794;2022-09-09T04:43:00;61.60;54.28;74.24;;
47109;Laerm;32856;51.422;6.794;2022-09-09T04:45:29;63.53;53.22;77.23;;
47109;Laerm;32856;51.422;6.794;2022-09-09T04:47:58;63.97;54.44;79.97;;
47109;Laerm;32856;51.422;6.794;2022-09-09T04:50:25;63.71;54.13;76.67;;
47109;Laerm;32856;51.422;6.794;2022-09-09T04:52:54;64.32;53.29;75.90;;
47109;Laerm;32856;51.422;6.794;2022-09-09T04:55:21;65.33;53.80;82.60;;
47109;Laerm;32856;51.422;6.794;2022-09-09T04:57:49;60.66;52.79;75.71;;
47109;Laerm;32856;51.422;6.794;2022-09-09T05:00:16;62.23;53.36;75.91;;
47109;Laerm;32856;51.422;6.794;2022-09-09T05:02:45;66.35;53.30;78.21;;
47109;Laerm;32856;51.422;6.794;2022-09-09T05:05:15;64.23;53.30;75.93;;
47109;Laerm;32856;51.422;6.794;2022-09-09T05:07:42;65.82;54.04;85.69;;
47109;Laerm;32856;51.422;6.794;2022-09-09T05:10:10;65.82;54.32;77.06;;
47109;Laerm;32856;51.422;6.794;2022-09-09T05:12:37;61.98;53.06;74.93;;
47109;Laerm;32856;51.422;6.794;2022-09-09T05:15:05;66.70;54.35;77.35;;
47109;Laerm;32856;51.422;6.794;2022-09-09T05:17:33;62.38;54.14;74.61;;
47109;Laerm;32856;51.422;6.794;2022-09-09T05:20:01;66.18;53.60;79.02;;
47109;Laerm;32856;51.422;6.794;2022-09-09T05:22:36;64.59;53.08;78.83;;
47109;Laerm;32856;51.422;6.794;2022-09-09T05:25:04;64.03;50.94;77.87;;
47109;Laerm;32856;51.422;6.794;2022-09-09T05:27:33;63.98;51.04;75.66;;
47109;Laerm;32856;51.422;6.794;2022-09-09T05:30:00;62.36;52.39;75.77;;
47109;Laerm;32856;51.422;6.794;2022-09-09T05:32:29;65.78;52.68;77.20;;
47109;Laerm;32856;51.422;6.794;2022-09-09T05:35:00;65.22;52.97;79.45;;
47109;Laerm;32856;51.422;6.794;2022-09-09T05:37:28;68.60;53.29;83.35;;
47109;Laerm;32856;51.422;6.794;2022-09-09T05:39:57;64.56;51.22;75.30;;
47109;Laerm;32856;51.422;6.794;2022-09-09T05:42:25;65.03;52.18;76.27;;
47109;Laerm;32856;51.422;6.794;2022-09-09T05:44:56;64.24;52.62;77.51;;
47109;Laerm;32856;51.422;6.794;2022-09-09T05:47:24;64.43;52.96;74.86;;
47109;Laerm;32856;51.422;6.794;2022-09-09T05:49:54;67.79;52.45;85.75;;
47109;Laerm;32856;51.422;6.794;2022-09-09T05:52:22;66.11;50.85;78.53;;
47109;Laerm;32856;51.422;6.794;2022-09-09T05:54:49;66.57;54.25;78.77;;
47109;Laerm;32856;51.422;6.794;2022-09-09T05:57:18;63.72;50.50;75.04;;
47109;Laerm;32856;51.422;6.794;2022-09-09T05:59:46;64.31;51.54;75.58;;
47109;Laerm;32856;51.422;6.794;2022-09-09T06:02:14;66.82;53.25;77.08;;
47109;Laerm;32856;51.422;6.794;2022-09-09T06:04:41;65.34;52.64;75.67;;
47109;Laerm;32856;51.422;6.794;2022-09-09T06:07:09;66.32;52.63;77.30;;
47109;Laerm;32856;51.422;6.794;2022-09-09T06:09:36;64.35;52.83;75.05;;
47109;Laerm;32856;51.422;6.794;2022-09-09T06:12:04;65.36;53.11;78.25;;
47109;Laerm;32856;51.422;6.794;2022-09-09T06:14:33;64.53;52.21;76.16;;
47109;Laerm;32856;51.422;6.794;2022-09-09T06:17:00;64.33;52.51;75.98;;
47109;Laerm;32856;51.422;6.794;2022-09-09T06:19:28;67.14;53.43;81.17;;
47109;Laerm;32856;51.422;6.794;2022-09-09T06:21:58;62.98;53.02;74.51;;
47109;Laerm;32856;51.422;6.794;2022-09-09T06:24:25;66.54;53.12;80.19;;
47109;Laerm;32856;51.422;6.794;2022-09-09T06:26:53;66.84;53.07;79.84;;
47109;Laerm;32856;51.422;6.794;2022-09-09T06:29:20;63.89;52.34;76.78;;
47109;Laerm;32856;51.422;6.794;2022-09-09T06:31:49;66.24;54.41;76.86;;
47109;Laerm;32856;51.422;6.794;2022-09-09T06:34:17;64.62;52.98;77.86;;
47109;Laerm;32856;51.422;6.794;2022-09-09T06:36:44;64.10;53.60;74.28;;
47109;Laerm;32856;51.422;6.794;2022-09-09T06:39:12;66.30;52.71;87.18;;
47109;Laerm;32856;51.422;6.794;2022-09-09T06:41:41;64.23;53.57;77.36;;
47109;Laerm;32856;51.422;6.794;2022-09-09T06:44:09;65.46;53.85;76.66;;
47109;Laerm;32856;51.422;6.794;2022-09-09T06:46:37;64.57;54.16;77.11;;
47109;Laerm;32856;51.422;6.794;2022-09-09T06:49:07;66.26;54.04;89.27;;
47109;Laerm;32856;51.422;6.794;2022-09-09T06:51:35;66.40;53.50;85.75;;
47109;Laerm;32856;51.422;6.794;2022-09-09T06:54:03;66.24;53.54;76.67;;
47109;Laerm;32856;51.422;6.794;2022-09-09T06:56:32;63.48;53.90;73.55;;
47109;Laerm;32856;51.422;6.794;2022-09-09T06:59:00;64.25;54.38;74.88;;
47109;Laerm;32856;51.422;6.794;2022-09-09T07:01:30;64.45;53.71;75.40;;
47109;Laerm;32856;51.422;6.794;2022-09-09T07:03:58;64.34;52.50;75.08;;
47109;Laerm;32856;51.422;6.794;2022-09-09T07:06:28;61.66;53.78;74.42;;
47109;Laerm;32856;51.422;6.794;2022-09-09T07:08:57;64.44;53.87;79.50;;
47109;Laerm;32856;51.422;6.794;2022-09-09T07:11:25;64.75;54.48;77.93;;
47109;Laerm;32856;51.422;6.794;2022-09-09T07:13:53;64.09;52.84;75.83;;
47109;Laerm;32856;51.422;6.794;2022-09-09T07:16:21;63.28;53.08;77.97;;
47109;Laerm;32856;51.422;6.794;2022-09-09T07:18:50;65.46;53.77;79.80;;
47109;Laerm;32856;51.422;6.794;2022-09-09T07:21:18;59.52;51.62;74.69;;
47109;Laerm;32856;51.422;6.794;2022-09-09T07:23:48;64.87;53.86;77.92;;
47109;Laerm;32856;51.422;6.794;2022-09-09T07:26:16;64.98;53.70;76.73;;
47109;Laerm;32856;51.422;6.794;2022-09-09T07:28:45;61.82;53.75;75.56;;
47109;Laerm;32856;51.422;6.794;2022-09-09T07:31:14;63.14;51.87;75.35;;
47109;Laerm;32856;51.422;6.794;2022-09-09T07:33:43;63.76;54.29;77.99;;
47109;Laerm;32856;51.422;6.794;2022-09-09T07:36:12;60.63;52.18;71.87;;
47109;Laerm;32856;51.422;6.794;2022-09-09T07:38:40;65.06;52.64;76.48;;
47109;Laerm;32856;51.422;6.794;2022-09-09T07:41:11;63.22;51.64;75.97;;
47109;Laerm;32856;51.422;6.794;2022-09-09T07:43:40;60.74;52.18;73.54;;
47109;Laerm;32856;51.422;6.794;2022-09-09T07:46:08;65.41;52.75;78.47;;
47109;Laerm;32856;51.422;6.794;2022-09-09T07:48:36;65.28;54.21;80.36;;
47109;Laerm;32856;51.422;6.794;2022-09-09T07:51:04;62.91;53.11;74.10;;
47109;Laerm;32856;51.422;6.794;2022-09-09T07:53:33;66.42;53.24;85.23;;
47109;Laerm;32856;51.422;6.794;2022-09-09T07:56:05;68.01;54.03;77.65;;
47109;Laerm;32856;51.422;6.794;2022-09-09T07:58:34;68.62;54.46;79.36;;
47109;Laerm;32856;51.422;6.794;2022-09-09T08:01:07;65.49;54.71;78.78;;
47109;Laerm;32856;51.422;6.794;2022-09-09T08:03:35;64.55;53.53;82.84;;
47109;Laerm;32856;51.422;6.794;2022-09-09T08:06:04;63.32;53.35;74.15;;
47109;Laerm;32856;51.422;6.794;2022-09-09T08:08:33;66.81;52.98;82.41;;
47109;Laerm;32856;51.422;6.794;2022-09-09T08:11:02;63.62;52.95;74.83;;
47109;Laerm;32856;51.422;6.794;2022-09-09T08:13:30;61.63;52.70;73.10;;
47109;Laerm;32856;51.422;6.794;2022-09-09T08:16:04;63.65;54.43;77.57;;
47109;Laerm;32856;51.422;6.794;2022-09-09T08:18:32;75.02;57.66;87.22;;
47109;Laerm;32856;51.422;6.794;2022-09-09T08:21:07;62.25;54.20;74.30;;
47109;Laerm;32856;51.422;6.794;2022-09-09T08:23:35;61.80;53.78;76.33;;
47109;Laerm;32856;51.422;6.794;2022-09-09T08:26:04;64.09;54.21;75.56;;
47109;Laerm;32856;51.422;6.794;2022-09-09T08:28:32;64.21;52.95;75.43;;
47109;Laerm;32856;51.422;6.794;2022-09-09T08:31:07;62.40;53.07;74.03;;
47109;Laerm;32856;51.422;6.794;2022-09-09T08:33:35;65.09;51.80;76.47;;
47109;Laerm;32856;51.422;6.794;2022-09-09T08:36:08;63.78;52.88;76.68;;
47109;Laerm;32856;51.422;6.794;2022-09-09T08:38:37;62.91;53.78;76.62;;
47109;Laerm;32856;51.422;6.794;2022-09-09T08:43:52;61.84;51.26;76.88;;
47109;Laerm;32856;51.422;6.794;2022-09-09T08:46:29;65.64;52.57;82.51;;
47109;Laerm;32856;51.422;6.794;2022-09-09T08:49:01;62.87;52.69;75.07;;
47109;Laerm;32856;51.422;6.794;2022-09-09T08:51:30;61.58;52.50;76.24;;
47109;Laerm;32856;51.422;6.794;2022-09-09T08:54:00;65.62;54.16;76.36;;
47109;Laerm;32856;51.422;6.794;2022-09-09T08:56:32;63.59;55.06;75.70;;
47109;Laerm;32856;51.422;6.794;2022-09-09T08:59:00;65.36;53.75;81.02;;
47109;Laerm;32856;51.422;6.794;2022-09-09T09:01:41;63.95;54.99;78.59;;
47109;Laerm;32856;51.422;6.794;2022-09-09T09:07:02;64.33;54.54;76.03;;
47109;Laerm;32856;51.422;6.794;2022-09-09T09:09:35;60.60;53.35;75.09;;
47109;Laerm;32856;51.422;6.794;2022-09-09T09:12:15;63.54;53.48;76.09;;
47109;Laerm;32856;51.422;6.794;2022-09-09T09:14:45;63.32;52.68;78.57;;
47109;Laerm;32856;51.422;6.794;2022-09-09T09:17:17;65.57;54.12;78.10;;
47109;Laerm;32856;51.422;6.794;2022-09-09T09:19:46;65.99;54.88;82.02;;
47109;Laerm;32856;51.422;6.794;2022-09-09T09:22:17;63.86;51.94;75.60;;
47109;Laerm;32856;51.422;6.794;2022-09-09T09:24:49;64.37;52.92;77.64;;
47109;Laerm;32856;51.422;6.794;2022-09-09T09:27:21;64.34;54.77;75.80;;
47109;Laerm;32856;51.422;6.794;2022-09-09T09:29:55;61.66;53.19;74.30;;
47109;Laerm;32856;51.422;6.794;2022-09-09T09:32:50;65.84;52.80;80.81;;
47109;Laerm;32856;51.422;6.794;2022-09-09T09:35:20;63.74;53.22;78.13;;
47109;Laerm;32856;51.422;6.794;2022-09-09T09:37:48;65.23;54.12;78.71;;
47109;Laerm;32856;51.422;6.794;2022-09-09T09:40:37;63.08;53.21;73.99;;
47109;Laerm;32856;51.422;6.794;2022-09-09T09:43:19;61.60;52.82;73.80;;
47109;Laerm;32856;51.422;6.794;2022-09-09T09:45:49;63.11;53.05;79.71;;
47109;Laerm;32856;51.422;6.794;2022-09-09T09:48:46;61.63;53.54;74.97;;
47109;Laerm;32856;51.422;6.794;2022-09-09T09:51:52;65.35;53.15;78.69;;
47109;Laerm;32856;51.422;6.794;2022-09-09T10:01:35;62.92;52.83;76.49;;
47109;Laerm;32856;51.422;6.794;2022-09-09T10:47:12;62.97;51.65;75.54;;
47109;Laerm;32856;51.422;6.794;2022-09-09T10:53:14;66.57;52.92;82.08;;
47109;Laerm;32856;51.422;6.794;2022-09-09T10:55:48;62.67;52.72;74.40;;
47109;Laerm;32856;51.422;6.794;2022-09-09T10:58:20;62.07;50.05;74.56;;
47109;Laerm;32856;51.422;6.794;2022-09-09T11:00:51;64.94;52.54;77.66;;
47109;Laerm;32856;51.422;6.794;2022-09-09T11:03:25;63.33;52.20;76.52;;
47109;Laerm;32856;51.422;6.794;2022-09-09T11:05:56;63.36;49.51;75.01;;
47109;Laerm;32856;51.422;6.794;2022-09-09T11:11:56;62.92;51.88;78.64;;
47109;Laerm;32856;51.422;6.794;2022-09-09T11:15:13;65.63;50.74;82.72;;
47109;Laerm;32856;51.422;6.794;2022-09-09T11:18:11;64.01;51.95;76.92;;
47109;Laerm;32856;51.422;6.794;2022-09-09T11:31:53;63.55;49.90;79.48;;
47109;Laerm;32856;51.422;6.794;2022-09-09T11:34:30;65.24;52.02;75.89;;
47109;Laerm;32856;51.422;6.794;2022-09-09T11:47:24;67.11;53.41;89.16;;
47109;Laerm;32856;51.422;6.794;2022-09-09T11:50:06;63.52;51.81;77.10;;
47109;Laerm;32856;51.422;6.794;2022-09-09T11:52:36;65.30;54.11;78.90;;
47109;Laerm;32856;51.422;6.794;2022-09-09T11:55:08;65.19;53.42;75.99;;
47109;Laerm;32856;51.422;6.794;2022-09-09T11:57:36;63.22;53.22;75.75;;
47109;Laerm;32856;51.422;6.794;2022-09-09T12:00:05;64.86;53.77;77.17;;
47109;Laerm;32856;51.422;6.794;2022-09-09T12:02:34;63.41;52.81;76.98;;
47109;Laerm;32856;51.422;6.794;2022-09-09T12:05:04;66.31;52.81;81.63;;
47109;Laerm;32856;51.422;6.794;2022-09-09T12:07:35;63.27;53.16;76.03;;
47109;Laerm;32856;51.422;6.794;2022-09-09T12:10:05;65.14;52.44;76.34;;
47109;Laerm;32856;51.422;6.794;2022-09-09T12:12:46;63.74;51.42;78.18;;
47109;Laerm;32856;51.422;6.794;2022-09-09T12:15:24;66.15;52.29;76.20;;
47109;Laerm;32856;51.422;6.794;2022-09-09T12:17:56;65.98;55.72;80.88;;
47109;Laerm;32856;51.422;6.794;2022-09-09T12:20:30;63.96;55.34;74.33;;
47109;Laerm;32856;51.422;6.794;2022-09-09T12:23:02;64.82;54.77;75.71;;
47109;Laerm;32856;51.422;6.794;2022-09-09T12:25:36;65.23;54.07;74.92;;
47109;Laerm;32856;51.422;6.794;2022-09-09T12:28:11;62.95;54.14;74.46;;
47109;Laerm;32856;51.422;6.794;2022-09-09T12:30:44;63.90;51.13;77.20;;
47109;Laerm;32856;51.422;6.794;2022-09-09T12:33:18;64.49;51.34;78.91;;
47109;Laerm;32856;51.422;6.794;2022-09-09T12:35:47;65.30;53.48;76.23;;
47109;Laerm;32856;51.422;6.794;2022-09-09T12:38:19;64.84;53.46;78.46;;
47109;Laerm;32856;51.422;6.794;2022-09-09T12:40:54;65.27;54.50;77.54;;
47109;Laerm;32856;51.422;6.794;2022-09-09T12:43:22;67.20;56.01;77.94;;
47109;Laerm;32856;51.422;6.794;2022-09-09T12:45:50;68.68;55.17;78.65;;
47109;Laerm;32856;51.422;6.794;2022-09-09T12:48:27;66.87;52.89;78.01;;
47109;Laerm;32856;51.422;6.794;2022-09-09T12:50:57;70.42;60.02;78.48;;
47109;Laerm;32856;51.422;6.794;2022-09-09T12:53:26;71.92;60.75;82.20;;
47109;Laerm;32856;51.422;6.794;2022-09-09T12:55:57;72.01;56.11;79.76;;
47109;Laerm;32856;51.422;6.794;2022-09-09T12:58:24;70.03;55.72;80.54;;
47109;Laerm;32856;51.422;6.794;2022-09-09T13:00:55;71.32;56.60;80.69;;
47109;Laerm;32856;51.422;6.794;2022-09-09T13:03:23;67.57;56.21;78.40;;
47109;Laerm;32856;51.422;6.794;2022-09-09T13:05:53;72.20;58.22;80.29;;
47109;Laerm;32856;51.422;6.794;2022-09-09T13:08:21;72.93;62.37;83.65;;
47109;Laerm;32856;51.422;6.794;2022-09-09T13:10:49;72.35;59.51;82.28;;
47109;Laerm;32856;51.422;6.794;2022-09-09T13:13:26;69.44;55.62;82.55;;
47109;Laerm;32856;51.422;6.794;2022-09-09T13:15:56;68.23;54.79;79.56;;
47109;Laerm;32856;51.422;6.794;2022-09-09T13:18:25;69.87;54.25;80.03;;
47109;Laerm;32856;51.422;6.794;2022-09-09T13:20:55;70.75;57.56;80.52;;
47109;Laerm;32856;51.422;6.794;2022-09-09T13:23:25;70.39;55.20;80.28;;
47109;Laerm;32856;51.422;6.794;2022-09-09T13:25:54;69.93;53.26;90.02;;
47109;Laerm;32856;51.422;6.794;2022-09-09T13:28:24;68.99;52.65;81.01;;
47109;Laerm;32856;51.422;6.794;2022-09-09T13:30:58;69.58;51.72;80.95;;
47109;Laerm;32856;51.422;6.794;2022-09-09T13:33:29;69.39;53.27;79.23;;
47109;Laerm;32856;51.422;6.794;2022-09-09T13:35:59;66.60;51.84;79.31;;
47109;Laerm;32856;51.422;6.794;2022-09-09T13:38:29;67.85;52.28;78.84;;
47109;Laerm;32856;51.422;6.794;2022-09-09T13:40:57;67.45;51.37;79.42;;
47109;Laerm;32856;51.422;6.794;2022-09-09T13:43:27;69.71;50.59;82.76;;
47109;Laerm;32856;51.422;6.794;2022-09-09T13:45:56;66.41;49.74;77.54;;
47109;Laerm;32856;51.422;6.794;2022-09-09T13:48:25;65.62;51.92;78.38;;
47109;Laerm;32856;51.422;6.794;2022-09-09T13:50:56;69.59;53.24;83.31;;
47109;Laerm;32856;51.422;6.794;2022-09-09T13:53:26;66.61;52.28;78.80;;
47109;Laerm;32856;51.422;6.794;2022-09-09T13:55:53;67.33;52.60;79.55;;
47109;Laerm;32856;51.422;6.794;2022-09-09T13:58:22;67.02;54.75;82.32;;
47109;Laerm;32856;51.422;6.794;2022-09-09T14:00:51;69.23;52.48;81.75;;
47109;Laerm;32856;51.422;6.794;2022-09-09T14:03:19;66.37;52.45;79.39;;
47109;Laerm;32856;51.422;6.794;2022-09-09T14:05:47;66.86;52.10;77.06;;
47109;Laerm;32856;51.422;6.794;2022-09-09T14:08:21;69.14;55.65;85.80;;
47109;Laerm;32856;51.422;6.794;2022-09-09T14:10:51;67.31;55.23;77.32;;
47109;Laerm;32856;51.422;6.794;2022-09-09T14:13:22;68.68;53.59;79.06;;
47109;Laerm;32856;51.422;6.794;2022-09-09T14:15:49;71.65;52.78;81.38;;
47109;Laerm;32856;51.422;6.794;2022-09-09T14:18:17;67.25;50.71;82.61;;
47109;Laerm;32856;51.422;6.794;2022-09-09T14:20:44;64.25;49.38;78.41;;
47109;Laerm;32856;51.422;6.794;2022-09-09T14:23:12;65.87;51.55;78.84;;
47109;Laerm;32856;51.422;6.794;2022-09-09T14:25:41;66.89;52.51;79.37;;
47109;Laerm;32856;51.422;6.794;2022-09-09T14:28:10;64.06;51.93;77.41;;
47109;Laerm;32856;51.422;6.794;2022-09-09T14:30:39;64.20;53.00;80.29;;
47109;Laerm;32856;51.422;6.794;2022-09-09T14:33:07;65.80;53.12;78.33;;
47109;Laerm;32856;51.422;6.794;2022-09-09T14:35:35;65.17;52.06;79.30;;
47109;Laerm;32856;51.422;6.794;2022-09-09T14:38:03;66.44;53.31;77.20;;
47109;Laerm;32856;51.422;6.794;2022-09-09T14:40:31;70.85;58.04;79.07;;
47109;Laerm;32856;51.422;6.794;2022-09-09T14:43:00;67.32;56.08;79.10;;
47109;Laerm;32856;51.422;6.794;2022-09-09T14:45:29;67.33;54.01;81.29;;
47109;Laerm;32856;51.422;6.794;2022-09-09T14:47:57;69.12;56.22;83.92;;
47109;Laerm;32856;51.422;6.794;2022-09-09T14:50:25;68.59;53.57;78.69;;
47109;Laerm;32856;51.422;6.794;2022-09-09T14:52:53;70.62;55.70;83.40;;
47109;Laerm;32856;51.422;6.794;2022-09-09T14:55:20;71.13;55.21;80.60;;
47109;Laerm;32856;51.422;6.794;2022-09-09T14:57:48;68.87;53.20;80.78;;
47109;Laerm;32856;51.422;6.794;2022-09-09T15:00:16;66.96;52.45;76.94;;
47109;Laerm;32856;51.422;6.794;2022-09-09T15:02:45;68.20;52.96;78.47;;
47109;Laerm;32856;51.422;6.794;2022-09-09T15:05:14;68.50;53.23;80.10;;
47109;Laerm;32856;51.422;6.794;2022-09-09T15:07:43;70.38;55.61;83.02;;
47109;Laerm;32856;51.422;6.794;2022-09-09T15:10:10;68.09;54.83;78.42;;
47109;Laerm;32856;51.422;6.794;2022-09-09T15:12:38;69.13;56.78;81.48;;
47109;Laerm;32856;51.422;6.794;2022-09-09T15:15:06;68.36;54.75;78.43;;
47109;Laerm;32856;51.422;6.794;2022-09-09T15:17:33;67.63;53.49;77.65;;
47109;Laerm;32856;51.422;6.794;2022-09-09T15:20:03;70.31;54.93;83.51;;
47109;Laerm;32856;51.422;6.794;2022-09-09T15:22:33;66.97;52.89;79.46;;
47109;Laerm;32856;51.422;6.794;2022-09-09T15:25:03;68.32;54.45;80.37;;
47109;Laerm;32856;51.422;6.794;2022-09-09T15:27:31;66.32;52.17;80.58;;
47109;Laerm;32856;51.422;6.794;2022-09-09T15:30:00;65.95;53.48;79.01;;